TimeCST,TemperatureF,Dew PointF,Humidity,Sea Level PressureIn,VisibilityMPH,Wind Direction,Wind SpeedMPH,Gust SpeedMPH,PrecipitationIn,Events,Conditions,WindDirDegrees,DateUTC
6:00 AM,73,71,91,29.90,9,West,3.5,,,,Overcast,260,2013-06-24 12:00:00
6:00 AM,73.4,71.6,94,29.89,6.2,West,3.5,-,N/A,,Scattered Clouds,260,2013-06-24 12:00:00
7:00 AM,75.2,71.6,89,29.91,6.2,West,4.6,-,N/A,,Scattered Clouds,260,2013-06-24 13:00:00
8:00 AM,77.0,73.4,89,29.83,6.2,North,5.8,-,N/A,,Mostly Cloudy,350,2013-06-24 14:00:00
9:00 AM,83,74,66,29.96,9,WNW,5.8,,,Rain,Light Rain,300,2013-06-24 15:00:00
9:00 AM,82.4,73.4,74,29.95,6.2,WNW,5.8,-,N/A,,Heavy Drizzle,300,2013-06-24 15:00:00
9:53 AM,82.4,75.2,79,29.94,6.2,NNW,6.9,-,N/A,,Mostly Cloudy,330,2013-06-24 15:53:00
10:00 AM,82.4,75.2,79,29.94,6.2,NNW,6.9,-,N/A,,Mostly Cloudy,330,2013-06-24 16:00:00
11:00 AM,80.6,75.2,84,29.95,6.2,North,11.5,-,N/A,,Drizzle,350,2013-06-24 17:00:00
12:00 PM,83,74,68,29.94,9,NW,5.8,,,Rain,Light Drizzle,320,2013-06-24 18:00:00
12:00 PM,82.4,73.4,74,29.92,6.2,NW,5.8,-,N/A,,Scattered Clouds,320,2013-06-24 18:00:00
12:59 PM,84.2,75.2,74,299.00,6.2,WNW,5.8,-,N/A,,Mostly Cloudy,290,2013-06-24 18:59:00
1:00 PM,84.2,75.2,74,299.00,6.2,WNW,5.8,-,N/A,,Mostly Cloudy,290,2013-06-24 19:00:00
2:00 PM,86.0,75.2,70,29.90,6.2,Calm,Calm,-,N/A,,Mostly Cloudy,0,2013-06-24 20:00:00
2:23 PM,82.4,75.2,79,29.90,3.1,NE,13.8,-,N/A,Rain,Rain,50,2013-06-24 20:23:00
3:00 PM,81,74,75,29.90,8,Calm,Calm,,,Rain,Light Rain,,2013-06-24 21:00:00
3:00 PM,80.6,75.2,84,29.89,6.2,Calm,Calm,-,N/A,,Scattered Clouds,0,2013-06-24 21:00:00
4:00 PM,84.2,75.2,74,29.87,6.2,Calm,Calm,-,N/A,,Scattered Clouds,0,2013-06-24 22:00:00
5:00 PM,80.6,77.0,89,29.88,6.2,Calm,Calm,-,N/A,,Heavy Drizzle,0,2013-06-24 23:00:00
6:00 PM,80,76,84,29.90,8,Calm,Calm,,,Rain,Light Drizzle,,2013-06-25 00:00:00
6:00 PM,80.6,77.0,89,29.88,6.2,Calm,Calm,-,N/A,,Mostly Cloudy,0,2013-06-25 00:00:00